Time;durP1;ratioP1;P1;durP2;ratioP2;P2;SDS_P1;SDS_P2;PMS_P1;PMS_P2;Temp;Humidity;BMP_temperature;BMP_pressure;BME280_temperature;BME280_humidity;BME280_pressure;Samples;Min_cycle;Max_cycle;Signal;HPM_P1;HPM_P2
2022/04/16 00:01:45;;;;;;;4.93;2.43;;;10.90;79.90;;;;;;5012302;28;20453;-76
2022/04/16 00:04:31;;;;;;;4.10;2.23;;;10.60;81.50;;;;;;5014059;28;20466;-76
2022/04/16 00:07:17;;;;;;;2.63;1.97;;;10.50;83.10;;;;;;5017933;28;20875;-76
2022/04/16 00:10:04;;;;;;;6.00;2.87;;;10.30;84.50;;;;;;5012065;28;20447;-76
2022/04/16 00:12:50;;;;;;;4.53;3.27;;;10.30;84.00;;;;;;5017373;28;20442;-76
2022/04/16 00:15:36;;;;;;;3.40;2.40;;;10.30;84.00;;;;;;5012543;28;20787;-76
2022/04/16 00:18:23;;;;;;;3.87;2.87;;;10.10;83.80;;;;;;5010330;28;20447;-76
2022/04/16 00:21:11;;;;;;;3.90;2.47;;;10.00;84.20;;;;;;5013878;28;20634;-76
2022/04/16 00:23:57;;;;;;;4.00;2.43;;;9.90;85.80;;;;;;5022517;28;20466;-77
2022/04/16 00:26:43;;;;;;;2.80;2.40;;;9.90;85.50;;;;;;5023843;28;20390;-76
2022/04/16 00:29:30;;;;;;;4.63;2.53;;;9.80;85.40;;;;;;5006889;28;20491;-76
2022/04/16 00:32:19;;;;;;;3.37;2.47;;;9.70;85.90;;;;;;5012906;28;20451;-76
2022/04/16 00:35:08;;;;;;;3.60;2.80;;;9.50;86.90;;;;;;5016595;28;20909;-77
2022/04/16 00:37:53;;;;;;;4.73;2.40;;;9.40;87.50;;;;;;5018052;28;20442;-76
2022/04/16 00:40:39;;;;;;;4.87;2.40;;;9.30;88.80;;;;;;5019848;28;20978;-77
2022/04/16 00:43:27;;;;;;;4.93;3.33;;;9.30;89.30;;;;;;5010244;28;20469;-76
2022/04/16 00:46:13;;;;;;;5.63;2.53;;;9.20;90.00;;;;;;5007213;28;21055;-76
2022/04/16 00:49:00;;;;;;;8.53;2.70;;;9.20;90.20;;;;;;5008965;28;20431;-76
2022/04/16 00:51:49;;;;;;;3.60;2.50;;;9.30;90.20;;;;;;5018875;28;20934;-76
2022/04/16 00:54:35;;;;;;;2.90;2.23;;;9.20;89.70;;;;;;5013192;28;20463;-76
2022/04/16 00:57:21;;;;;;;3.00;2.20;;;9.20;90.10;;;;;;5008931;28;20543;-76
2022/04/16 01:00:08;;;;;;;3.90;2.50;;;9.20;90.00;;;;;;5015237;28;20471;-75
2022/04/16 01:02:56;;;;;;;3.00;2.17;;;9.10;90.10;;;;;;5012695;28;20963;-75
2022/04/16 01:05:41;;;;;;;4.57;2.57;;;9.20;89.30;;;;;;5015076;28;20467;-76
2022/04/16 01:08:29;;;;;;;4.00;2.93;;;9.10;89.30;;;;;;5013181;28;20482;-76
2022/04/16 01:11:15;;;;;;;6.00;3.10;;;8.90;90.40;;;;;;5015177;28;20413;-76
2022/04/16 01:14:02;;;;;;;3.57;2.77;;;8.80;90.40;;;;;;5025123;28;20482;-76
2022/04/16 01:16:48;;;;;;;8.20;2.87;;;8.80;91.00;;;;;;5010171;28;20513;-78
2022/04/16 01:19:34;;;;;;;3.10;2.47;;;8.80;91.40;;;;;;5011598;28;20450;-76
2022/04/16 01:22:21;;;;;;;8.50;3.20;;;8.80;91.40;;;;;;5019758;28;20743;-75
2022/04/16 01:25:09;;;;;;;6.73;2.83;;;8.50;91.70;;;;;;5019105;28;20446;-76
2022/04/16 01:27:54;;;;;;;4.50;3.20;;;8.20;93.10;;;;;;5005954;28;20474;-76
2022/04/16 01:30:40;;;;;;;4.60;2.80;;;8.20;94.40;;;;;;5018841;28;20492;-76
2022/04/16 01:33:26;;;;;;;4.83;3.07;;;8.20;94.30;;;;;;5016459;28;20454;-76
2022/04/16 01:36:12;;;;;;;3.90;2.87;;;8.20;94.70;;;;;;5018633;28;20454;-76
2022/04/16 01:38:57;;;;;;;3.97;2.93;;;8.10;95.50;;;;;;5008114;28;20461;-76
2022/04/16 01:41:46;;;;;;;5.43;3.03;;;8.20;95.40;;;;;;5010461;28;20462;-77
2022/04/16 01:44:32;;;;;;;3.80;3.03;;;8.30;94.90;;;;;;5021911;28;20808;-76
2022/04/16 01:47:18;;;;;;;3.63;2.60;;;8.40;95.00;;;;;;5012328;28;21084;-76
2022/04/16 01:50:05;;;;;;;12.60;2.97;;;8.30;94.20;;;;;;5014081;28;20429;-75
2022/04/16 01:52:52;;;;;;;4.30;2.70;;;8.20;94.70;;;;;;5011570;28;20461;-76
2022/04/16 01:55:37;;;;;;;5.93;2.97;;;8.30;94.60;;;;;;5013050;28;20505;-77
2022/04/16 01:58:25;;;;;;;2.80;2.40;;;8.40;94.70;;;;;;5017863;28;20510;-77
2022/04/16 02:01:11;;;;;;;4.57;2.50;;;8.50;94.50;;;;;;5014705;28;20977;-76
2022/04/16 02:03:59;;;;;;;4.27;3.00;;;8.50;94.30;;;;;;5010920;28;20474;-76
2022/04/16 02:06:45;;;;;;;3.57;2.97;;;8.50;94.60;;;;;;5007398;28;20422;-77
2022/04/16 02:09:30;;;;;;;3.67;3.20;;;8.50;94.50;;;;;;5010131;28;20442;-77
2022/04/16 02:12:16;;;;;;;3.27;2.50;;;8.60;94.60;;;;;;5018960;28;20413;-76
2022/04/16 02:15:04;;;;;;;3.30;2.83;;;8.60;94.50;;;;;;5015214;28;20471;-77
2022/04/16 02:17:49;;;;;;;3.20;2.57;;;8.50;94.60;;;;;;5019866;28;20447;-76
2022/04/16 02:20:36;;;;;;;4.27;3.30;;;8.50;94.90;;;;;;5014154;28;20466;-76
2022/04/16 02:23:21;;;;;;;6.23;3.43;;;8.40;95.10;;;;;;5008903;28;20477;-77
2022/04/16 02:26:09;;;;;;;3.93;2.73;;;8.30;95.80;;;;;;5012081;28;20442;-77
2022/04/16 02:28:55;;;;;;;3.50;2.70;;;8.50;95.70;;;;;;5013796;28;20463;-77
2022/04/16 02:31:44;;;;;;;3.50;2.90;;;8.60;95.30;;;;;;5012288;28;20455;-77
2022/04/16 02:34:30;;;;;;;5.03;3.50;;;8.50;95.10;;;;;;5014467;28;20455;-76
2022/04/16 02:37:16;;;;;;;3.90;2.83;;;8.50;95.70;;;;;;5006960;28;20614;-77
2022/04/16 02:40:03;;;;;;;5.23;4.07;;;8.40;96.10;;;;;;5010880;28;20458;-76
2022/04/16 02:42:49;;;;;;;5.70;3.27;;;8.20;97.10;;;;;;5015065;28;20467;-77
2022/04/16 02:48:39;;;;;;;4.50;3.03;;;8.40;98.40;;;;;;5025531;28;20572;-77
2022/04/16 02:51:25;;;;;;;8.40;3.27;;;8.50;98.60;;;;;;5013000;28;20415;-76
2022/04/16 02:54:11;;;;;;;4.97;2.97;;;8.60;98.30;;;;;;5017586;28;20444;-76
2022/04/16 02:56:57;;;;;;;4.47;3.07;;;8.60;98.20;;;;;;5014692;28;20453;-77
2022/04/16 02:59:42;;;;;;;4.00;3.20;;;8.70;98.30;;;;;;5016520;28;20540;-77
2022/04/16 03:02:28;;;;;;;3.10;2.80;;;8.60;98.40;;;;;;5007607;28;20556;-77
2022/04/16 03:05:15;;;;;;;5.93;3.60;;;8.80;98.60;;;;;;5011538;28;20947;-77
2022/04/16 03:08:01;;;;;;;4.93;3.23;;;8.90;98.90;;;;;;5015750;28;20463;-76
2022/04/16 03:10:47;;;;;;;5.50;3.87;;;8.90;98.50;;;;;;5027942;28;20807;-76
2022/04/16 03:13:34;;;;;;;4.67;3.20;;;8.90;98.90;;;;;;5016250;28;20470;-76
2022/04/16 03:19:23;;;;;;;3.97;2.53;;;9.00;98.90;;;;;;5012986;28;20437;-77
2022/04/16 03:22:10;;;;;;;7.70;3.43;;;9.20;98.90;;;;;;5014015;28;20449;-77
2022/04/16 03:24:55;;;;;;;4.37;2.90;;;9.20;98.40;;;;;;5003443;28;20451;-79
2022/04/16 03:27:41;;;;;;;4.40;3.10;;;9.10;98.50;;;;;;5053052;22;20511;-72
2022/04/16 03:30:27;;;;;;;3.67;3.20;;;9.20;98.70;;;;;;5043301;28;20458;-73
2022/04/16 03:33:13;;;;;;;3.53;2.83;;;9.30;98.80;;;;;;5053308;28;20434;-72
2022/04/16 03:35:58;;;;;;;4.40;3.13;;;9.40;98.50;;;;;;5049468;28;20449;-72
2022/04/16 03:38:45;;;;;;;4.63;3.70;;;9.40;98.20;;;;;;5058719;28;20789;-72
2022/04/16 03:41:31;;;;;;;6.97;4.07;;;9.50;97.90;;;;;;5058493;28;20949;-72
2022/04/16 03:44:17;;;;;;;5.47;3.73;;;9.60;97.70;;;;;;5055609;28;20450;-72
2022/04/16 03:47:02;;;;;;;3.67;2.97;;;9.60;97.50;;;;;;5042313;28;20826;-72
2022/04/16 03:49:48;;;;;;;3.70;3.13;;;9.50;97.90;;;;;;5050830;28;20570;-73
2022/04/16 03:52:40;;;;;;;4.70;3.67;;;9.50;98.10;;;;;;5055976;28;20476;-72
2022/04/16 04:01:36;;;;;;;7.33;3.60;;;9.60;98.20;;;;;;5049624;28;20412;-73
2022/04/16 04:04:22;;;;;;;4.83;3.20;;;9.50;98.40;;;;;;5052056;28;20591;-72
2022/04/16 04:07:08;;;;;;;4.93;3.60;;;9.50;98.50;;;;;;5043798;28;20443;-72
2022/04/16 04:09:53;;;;;;;4.97;3.00;;;9.50;98.80;;;;;;5057718;28;20459;-72
2022/04/16 04:12:40;;;;;;;5.00;4.00;;;9.60;98.90;;;;;;5046855;28;20454;-72
2022/04/16 04:15:27;;;;;;;4.43;3.30;;;9.50;98.80;;;;;;5041758;28;20420;-72
2022/04/16 04:18:13;;;;;;;5.50;3.33;;;9.60;98.80;;;;;;5049589;28;20946;-72
2022/04/16 04:20:58;;;;;;;4.63;2.90;;;9.60;98.80;;;;;;5048958;28;20441;-73
2022/04/16 04:23:44;;;;;;;7.37;3.27;;;9.70;98.70;;;;;;5054435;28;20461;-72
2022/04/16 04:26:30;;;;;;;4.07;3.33;;;9.80;98.30;;;;;;5052779;28;20474;-73
2022/04/16 04:29:16;;;;;;;5.00;3.33;;;9.70;99.00;;;;;;5053905;28;20473;-72
2022/04/16 04:32:02;;;;;;;4.80;2.70;;;9.70;99.20;;;;;;5048354;28;20865;-72
2022/04/16 04:34:48;;;;;;;3.87;2.90;;;9.70;99.40;;;;;;5045771;28;20417;-72
2022/04/16 04:37:34;;;;;;;4.10;3.50;;;9.80;99.20;;;;;;5054061;28;20454;-72
2022/04/16 04:40:19;;;;;;;5.43;2.87;;;9.80;99.30;;;;;;5055712;28;20548;-72
2022/04/16 04:43:05;;;;;;;4.50;3.47;;;9.90;99.20;;;;;;5061939;28;20525;-72
2022/04/16 04:45:52;;;;;;;3.77;2.93;;;10.00;98.70;;;;;;5049604;28;20491;-70
2022/04/16 04:48:38;;;;;;;4.87;3.57;;;10.00;98.70;;;;;;5058213;28;21014;-70
2022/04/16 04:51:24;;;;;;;5.50;3.50;;;10.00;98.90;;;;;;5054887;28;20824;-70
2022/04/16 04:54:09;;;;;;;7.20;2.93;;;9.90;99.30;;;;;;5051435;28;20841;-70
2022/04/16 04:56:55;;;;;;;4.77;3.20;;;10.00;99.20;;;;;;5054674;28;20474;-70
2022/04/16 04:59:41;;;;;;;4.53;3.30;;;10.00;99.50;;;;;;5049879;28;20455;-70
2022/04/16 05:02:28;;;;;;;4.57;3.40;;;10.00;99.60;;;;;;5046547;28;20559;-70
2022/04/16 05:05:14;;;;;;;3.80;2.83;;;10.10;99.60;;;;;;5046454;28;20469;-70
2022/04/16 05:08:00;;;;;;;5.37;3.53;;;10.20;99.30;;;;;;5041189;28;20605;-70
2022/04/16 05:10:46;;;;;;;9.03;3.40;;;10.20;99.70;;;;;;5064661;28;20448;-70
2022/04/16 05:13:31;;;;;;;4.37;3.60;;;10.30;99.70;;;;;;5055976;28;20432;-70
2022/04/16 05:16:17;;;;;;;4.40;3.40;;;10.30;99.90;;;;;;5053982;28;20424;-70
2022/04/16 05:19:04;;;;;;;5.53;4.00;;;10.20;99.90;;;;;;5044948;28;20417;-70
2022/04/16 05:21:50;;;;;;;5.53;3.73;;;10.30;99.60;;;;;;5048323;28;20472;-70
2022/04/16 05:24:35;;;;;;;4.50;3.50;;;10.40;99.90;;;;;;5042830;28;20529;-70
2022/04/16 05:27:21;;;;;;;6.50;4.40;;;10.40;99.90;;;;;;5060273;28;20560;-70
2022/04/16 05:30:13;;;;;;;5.60;3.90;;;10.40;99.90;;;;;;5044375;28;20539;-70
2022/04/16 05:33:02;;;;;;;4.73;3.70;;;10.40;99.80;;;;;;5051428;28;20505;-70
2022/04/16 05:35:49;;;;;;;7.10;4.43;;;10.50;99.70;;;;;;5062930;28;20439;-70
2022/04/16 05:38:35;;;;;;;7.87;4.17;;;10.60;99.40;;;;;;5052630;28;20465;-70
2022/04/16 05:41:20;;;;;;;9.03;4.13;;;10.60;99.10;;;;;;5051947;28;20492;-70
2022/04/16 05:44:06;;;;;;;6.30;4.17;;;10.70;98.60;;;;;;5042509;28;20412;-70
2022/04/16 05:46:52;;;;;;;5.70;4.73;;;10.80;98.30;;;;;;5053847;28;20469;-70
2022/04/16 05:49:37;;;;;;;4.90;3.67;;;10.90;98.00;;;;;;5046327;28;20548;-70
2022/04/16 05:52:25;;;;;;;5.20;4.13;;;11.10;97.40;;;;;;5042447;28;20424;-70
2022/04/16 05:55:12;;;;;;;6.33;4.37;;;11.20;96.60;;;;;;5042777;28;20977;-70
2022/04/16 05:57:57;;;;;;;6.27;3.83;;;11.20;96.30;;;;;;5051223;28;20489;-70
2022/04/16 06:00:44;;;;;;;6.10;4.20;;;11.40;96.20;;;;;;5044788;28;20491;-72
2022/04/16 06:03:30;;;;;;;5.83;4.10;;;11.40;95.80;;;;;;5037086;28;20457;-72
2022/04/16 06:06:16;;;;;;;4.70;3.63;;;11.50;95.50;;;;;;5045834;28;20649;-72
2022/04/16 06:09:04;;;;;;;5.23;3.80;;;11.50;95.30;;;;;;5039976;28;20872;-72
2022/04/16 06:11:51;;;;;;;5.07;3.63;;;11.50;95.00;;;;;;5047299;28;20417;-72
2022/04/16 06:14:37;;;;;;;8.83;3.47;;;11.40;95.20;;;;;;5033184;28;20410;-72
2022/04/16 06:17:23;;;;;;;6.23;4.17;;;11.50;94.90;;;;;;5058117;28;20474;-72
2022/04/16 06:20:09;;;;;;;4.93;3.50;;;11.60;94.70;;;;;;5039702;28;20537;-72
2022/04/16 06:22:55;;;;;;;6.40;3.83;;;11.70;94.40;;;;;;5046957;28;20431;-72
2022/04/16 06:25:42;;;;;;;6.03;3.90;;;11.70;94.40;;;;;;5041943;28;20413;-72
2022/04/16 06:28:28;;;;;;;4.40;3.23;;;11.70;94.60;;;;;;5038759;28;20959;-72
2022/04/16 06:31:13;;;;;;;8.27;4.33;;;11.70;94.00;;;;;;5047274;28;20435;-72
2022/04/16 06:33:59;;;;;;;5.67;4.00;;;11.80;94.40;;;;;;5037399;28;20956;-72
2022/04/16 06:36:44;;;;;;;8.63;4.20;;;11.80;93.70;;;;;;5042535;28;20494;-72
2022/04/16 06:39:30;;;;;;;4.77;3.77;;;11.90;93.90;;;;;;5044637;28;20439;-72
2022/04/16 06:42:17;;;;;;;5.63;3.97;;;11.80;94.00;;;;;;5053444;28;20429;-72
2022/04/16 06:45:03;;;;;;;5.07;4.30;;;11.90;93.40;;;;;;5047693;28;20420;-72
2022/04/16 06:47:48;;;;;;;6.43;4.90;;;11.90;93.70;;;;;;5043957;28;20482;-72
2022/04/16 06:50:34;;;;;;;5.80;4.50;;;11.90;93.60;;;;;;5042811;28;21035;-72
2022/04/16 06:53:19;;;;;;;4.00;3.47;;;12.00;93.60;;;;;;5047260;28;20534;-72
2022/04/16 06:56:05;;;;;;;5.33;4.00;;;12.20;93.10;;;;;;5040031;28;20422;-72
2022/04/16 06:58:52;;;;;;;4.93;3.93;;;12.20;92.30;;;;;;5049089;28;20443;-73
2022/04/16 07:01:38;;;;;;;5.07;3.47;;;12.30;91.80;;;;;;5045377;28;20976;-72
2022/04/16 07:04:24;;;;;;;5.30;3.70;;;12.30;90.30;;;;;;5046130;28;20428;-70
2022/04/16 07:07:10;;;;;;;4.97;3.30;;;12.20;90.00;;;;;;5044951;28;20469;-72
2022/04/16 07:09:55;;;;;;;5.00;3.80;;;12.30;90.00;;;;;;5051064;28;20944;-73
2022/04/16 07:12:41;;;;;;;4.70;3.07;;;12.30;86.60;;;;;;5043644;28;20824;-73
2022/04/16 07:15:28;;;;;;;4.37;3.17;;;12.30;87.00;;;;;;5047929;28;20450;-73
2022/04/16 07:18:14;;;;;;;4.50;3.13;;;12.30;86.60;;;;;;5047004;28;20808;-72
2022/04/16 07:21:00;;;;;;;4.90;3.17;;;12.40;86.70;;;;;;5043574;28;20430;-72
2022/04/16 07:23:45;;;;;;;4.10;3.27;;;12.40;86.70;;;;;;5044887;28;20466;-73
2022/04/16 07:26:31;;;;;;;4.20;2.97;;;12.40;88.90;;;;;;5046274;28;20776;-73
2022/04/16 07:29:17;;;;;;;4.80;3.03;;;12.40;86.70;;;;;;5047124;28;20470;-72
2022/04/16 07:32:05;;;;;;;4.33;2.90;;;12.50;86.70;;;;;;5044390;28;20547;-73
2022/04/16 07:34:50;;;;;;;4.97;3.63;;;12.50;85.40;;;;;;5050963;28;20472;-73
2022/04/16 07:37:36;;;;;;;5.23;3.37;;;12.50;85.40;;;;;;5047523;28;20441;-73
2022/04/16 07:40:21;;;;;;;5.57;3.53;;;12.50;84.90;;;;;;5045466;28;20442;-73
2022/04/16 07:43:07;;;;;;;4.70;3.50;;;12.50;85.40;;;;;;5039945;28;21106;-73
2022/04/16 07:45:52;;;;;;;6.20;3.73;;;12.50;85.30;;;;;;5049832;28;20443;-73
2022/04/16 07:48:39;;;;;;;5.23;3.57;;;12.50;84.80;;;;;;5051788;28;20625;-73
2022/04/16 07:51:26;;;;;;;4.53;3.40;;;12.50;85.30;;;;;;5046119;28;20961;-73
2022/04/16 07:54:11;;;;;;;4.80;3.67;;;12.60;84.60;;;;;;5052437;28;20526;-73
2022/04/16 07:56:57;;;;;;;4.97;3.50;;;12.60;82.10;;;;;;5046890;28;20467;-73
2022/04/16 07:59:43;;;;;;;4.50;3.33;;;12.50;82.30;;;;;;5046857;28;20448;-73
2022/04/16 08:02:28;;;;;;;4.10;3.10;;;12.30;81.60;;;;;;5042738;28;20450;-73
2022/04/16 08:05:16;;;;;;;5.47;3.20;;;12.30;82.10;;;;;;5051134;28;20436;-73
2022/04/16 08:08:02;;;;;;;4.10;3.40;;;12.30;81.10;;;;;;5047600;28;20437;-73
2022/04/16 08:10:51;;;;;;;5.30;3.13;;;12.40;81.50;;;;;;5043314;28;20458;-73
2022/04/16 08:13:37;;;;;;;4.43;3.50;;;12.40;81.50;;;;;;5040293;28;20417;-73
2022/04/16 08:16:22;;;;;;;4.30;2.97;;;12.50;81.30;;;;;;5053201;28;20476;-73
2022/04/16 08:19:08;;;;;;;5.77;3.70;;;12.60;79.90;;;;;;5053664;28;20940;-73
2022/04/16 08:21:55;;;;;;;4.63;2.80;;;12.80;79.50;;;;;;5043493;28;20450;-73
2022/04/16 08:24:42;;;;;;;5.57;3.90;;;12.90;80.00;;;;;;5060427;28;20805;-72
2022/04/16 08:27:27;;;;;;;5.10;3.43;;;12.90;80.50;;;;;;5048321;28;20483;-72
2022/04/16 08:30:15;;;;;;;4.00;3.20;;;13.00;78.70;;;;;;5042967;28;20454;-73
2022/04/16 08:33:01;;;;;;;5.03;3.47;;;13.00;76.80;;;;;;5052842;28;20461;-73
2022/04/16 08:35:47;;;;;;;4.80;3.17;;;13.10;77.40;;;;;;5058388;28;20910;-71
2022/04/16 08:38:34;;;;;;;3.37;2.70;;;13.20;75.00;;;;;;5044108;28;20432;-70
2022/04/16 08:41:20;;;;;;;4.77;3.27;;;13.40;73.90;;;;;;5045358;28;20527;-72
2022/04/16 08:44:06;;;;;;;3.47;2.70;;;13.30;72.10;;;;;;5045228;28;20451;-72
2022/04/16 08:46:53;;;;;;;3.90;2.83;;;13.30;71.60;;;;;;5045630;28;20519;-71
2022/04/16 08:49:39;;;;;;;5.00;3.03;;;13.30;72.70;;;;;;5043508;28;20680;-72
2022/04/16 08:52:29;;;;;;;4.30;3.20;;;13.30;74.10;;;;;;5056273;28;21063;-72
2022/04/16 08:55:16;;;;;;;5.67;3.97;;;13.40;70.80;;;;;;5048700;28;20444;-72
2022/04/16 08:58:01;;;;;;;4.17;3.03;;;13.50;70.60;;;;;;5043746;28;20472;-72
2022/04/16 09:00:47;;;;;;;4.37;2.73;;;13.50;71.80;;;;;;5045136;28;20812;-72
2022/04/16 09:03:33;;;;;;;4.10;3.00;;;13.40;70.60;;;;;;5049645;28;20431;-72
2022/04/16 09:06:23;;;;;;;4.70;3.23;;;13.40;70.20;;;;;;5047167;28;20534;-72
2022/04/16 09:09:12;;;;;;;3.50;2.53;;;13.40;69.20;;;;;;5041090;28;20406;-73
2022/04/16 09:11:59;;;;;;;4.07;2.47;;;13.40;68.40;;;;;;5044688;28;20447;-72
2022/04/16 09:14:46;;;;;;;3.20;2.37;;;13.40;68.30;;;;;;5046485;28;20600;-72
2022/04/16 09:17:32;;;;;;;3.40;2.60;;;13.30;68.50;;;;;;5044530;28;20508;-72
2022/04/16 09:20:18;;;;;;;4.73;3.07;;;13.40;68.50;;;;;;5050961;28;20592;-72
2022/04/16 09:23:16;;;;;;;4.57;2.80;;;13.30;67.70;;;;;;5051966;28;20434;-72
2022/04/16 09:26:02;;;;;;;5.20;3.70;;;13.20;68.20;;;;;;5059760;28;20398;-73
2022/04/16 09:28:49;;;;;;;5.30;3.10;;;13.20;69.10;;;;;;5042992;28;20536;-74
2022/04/16 09:31:38;;;;;;;5.23;3.10;;;13.20;69.10;;;;;;5050435;28;20497;-73
2022/04/16 09:34:25;;;;;;;4.50;2.90;;;13.20;69.10;;;;;;5048324;28;20434;-73
2022/04/16 09:37:14;;;;;;;4.90;3.10;;;13.20;69.10;;;;;;5063435;28;20596;-73
2022/04/16 09:40:10;;;;;;;4.57;3.30;;;13.20;68.60;;;;;;5043982;28;20950;-74
2022/04/16 09:42:57;;;;;;;4.60;3.40;;;13.20;69.10;;;;;;5042796;28;20414;-76
2022/04/16 09:45:44;;;;;;;4.97;3.50;;;13.30;67.90;;;;;;5048773;28;20443;-73
2022/04/16 09:48:30;;;;;;;7.40;3.50;;;13.10;68.30;;;;;;5043724;28;20442;-74
2022/04/16 09:51:17;;;;;;;5.93;3.20;;;13.10;69.00;;;;;;5048531;28;20459;-73
2022/04/16 09:54:05;;;;;;;5.27;3.60;;;13.20;69.30;;;;;;5046958;28;20412;-73
2022/04/16 09:56:54;;;;;;;5.60;3.50;;;13.20;69.10;;;;;;5050794;28;20444;-74
2022/04/16 09:59:45;;;;;;;6.40;3.53;;;13.20;68.60;;;;;;5044337;28;20450;-74
2022/04/16 10:02:34;;;;;;;5.40;3.60;;;13.40;68.80;;;;;;5049401;28;20515;-74
2022/04/16 10:05:21;;;;;;;4.30;3.00;;;13.60;69.40;;;;;;5046210;28;20417;-74
2022/04/16 10:08:08;;;;;;;5.23;2.90;;;13.70;66.90;;;;;;5044835;28;20469;-74
2022/04/16 10:10:57;;;;;;;6.90;3.73;;;13.70;65.50;;;;;;5043590;28;20938;-74
2022/04/16 10:13:49;;;;;;;5.43;3.00;;;13.80;64.80;;;;;;5047475;28;20947;-74
2022/04/16 10:16:42;;;;;;;3.60;2.40;;;13.70;62.70;;;;;;5047499;28;20776;-74
2022/04/16 10:19:40;;;;;;;4.23;2.30;;;14.00;61.50;;;;;;5039669;28;20494;-74
2022/04/16 10:22:28;;;;;;;4.73;2.73;;;14.10;60.50;;;;;;5045160;28;20506;-74
2022/04/16 10:25:14;;;;;;;4.60;2.80;;;14.30;61.10;;;;;;5056327;28;20473;-74
2022/04/16 10:28:06;;;;;;;3.80;2.60;;;14.50;56.30;;;;;;5051411;28;20487;-75
2022/04/16 10:30:52;;;;;;;4.30;2.53;;;14.60;54.20;;;;;;5046869;28;20516;-74
2022/04/16 10:33:38;;;;;;;5.63;2.60;;;14.80;56.40;;;;;;5043066;28;20461;-73
2022/04/16 10:36:28;;;;;;;5.03;2.60;;;15.00;50.20;;;;;;5046832;28;20494;-73
2022/04/16 10:39:15;;;;;;;3.20;1.90;;;15.20;50.50;;;;;;5038296;28;20511;-74
2022/04/16 10:42:02;;;;;;;2.83;1.80;;;15.40;50.00;;;;;;5042225;28;20434;-74
2022/04/16 10:44:49;;;;;;;3.60;2.20;;;15.40;48.40;;;;;;5044019;28;20788;-74
2022/04/16 10:47:38;;;;;;;3.43;2.00;;;15.40;48.80;;;;;;5042807;28;20479;-74
2022/04/16 10:50:25;;;;;;;7.07;2.73;;;15.50;47.90;;;;;;5039726;28;20538;-73
2022/04/16 10:53:12;;;;;;;3.47;2.13;;;15.60;46.70;;;;;;5046809;28;20849;-73
2022/04/16 10:55:59;;;;;;;3.20;2.20;;;15.70;44.80;;;;;;5041042;28;20444;-74
2022/04/16 10:58:46;;;;;;;3.90;2.00;;;15.70;41.60;;;;;;5040772;28;20446;-74
2022/04/16 11:01:32;;;;;;;3.83;1.90;;;15.90;43.00;;;;;;5044384;28;20435;-73
2022/04/16 11:04:18;;;;;;;5.00;2.50;;;15.90;40.10;;;;;;5042683;28;20439;-72
2022/04/16 11:07:08;;;;;;;4.80;1.80;;;16.00;38.90;;;;;;5047734;28;20463;-72
2022/04/16 11:09:55;;;;;;;4.13;2.40;;;16.00;36.10;;;;;;5048900;28;20443;-72
2022/04/16 11:12:41;;;;;;;3.33;1.87;;;16.10;39.20;;;;;;5049600;28;20907;-71
2022/04/16 11:15:28;;;;;;;2.77;1.53;;;16.20;36.20;;;;;;5048263;28;20452;-72
2022/04/16 11:18:18;;;;;;;3.47;2.00;;;16.30;35.60;;;;;;5042639;28;20471;-72
2022/04/16 11:21:08;;;;;;;3.40;2.10;;;16.50;35.20;;;;;;5047419;28;20510;-74
2022/04/16 11:23:54;;;;;;;4.10;1.97;;;16.50;35.80;;;;;;5050839;28;20921;-74
2022/04/16 11:36:06;;;;;;;3.33;2.03;;;16.90;33.80;;;;;;4961931;28;20987;-74
2022/04/16 11:38:53;;;;;;;4.60;2.13;;;16.90;33.90;;;;;;5047035;28;20522;-74
2022/04/16 11:41:39;;;;;;;3.97;2.07;;;16.90;34.50;;;;;;5047101;28;20948;-73
2022/04/16 11:44:34;;;;;;;5.90;1.97;;;17.10;35.70;;;;;;5044847;28;20435;-74
2022/04/16 11:47:23;;;;;;;2.47;1.60;;;17.30;36.10;;;;;;5043788;28;20544;-74
2022/04/16 11:50:13;;;;;;;3.40;2.27;;;17.40;33.50;;;;;;5041762;28;20546;-74
2022/04/16 11:53:00;;;;;;;3.13;1.67;;;17.50;32.30;;;;;;5046603;28;20456;-74
2022/04/16 11:55:46;;;;;;;2.57;1.63;;;17.40;30.60;;;;;;5045449;28;20439;-73
2022/04/16 11:58:32;;;;;;;4.80;2.17;;;17.50;31.40;;;;;;5048318;28;21013;-74
2022/04/16 12:01:22;;;;;;;3.63;2.00;;;17.70;30.00;;;;;;5049864;28;20442;-73
2022/04/16 12:04:08;;;;;;;3.20;2.20;;;17.60;30.60;;;;;;5047252;28;20443;-74
2022/04/16 12:06:54;;;;;;;2.73;1.60;;;17.60;31.30;;;;;;5041642;28;20935;-74
2022/04/16 12:09:45;;;;;;;3.07;1.70;;;17.70;28.50;;;;;;5045709;28;20414;-73
2022/04/16 12:12:30;;;;;;;2.43;1.60;;;17.80;30.40;;;;;;5048449;28;20455;-74
2022/04/16 12:15:25;;;;;;;2.93;1.80;;;17.70;28.10;;;;;;5049246;28;20582;-74
2022/04/16 12:18:15;;;;;;;3.43;2.00;;;17.60;29.10;;;;;;5043024;28;20626;-72
2022/04/16 12:21:07;;;;;;;7.43;2.10;;;17.60;29.40;;;;;;5046848;28;20447;-73
2022/04/16 12:23:52;;;;;;;3.97;2.33;;;17.60;28.50;;;;;;5046926;28;20418;-72
2022/04/16 12:26:48;;;;;;;8.10;1.60;;;17.70;29.40;;;;;;5043938;28;20443;-72
2022/04/16 12:29:34;;;;;;;4.00;1.50;;;17.80;29.10;;;;;;5048555;28;20492;-72
2022/04/16 12:32:25;;;;;;;2.10;1.40;;;18.10;30.00;;;;;;5045468;28;20459;-72
2022/04/16 12:35:12;;;;;;;2.60;1.30;;;18.40;28.60;;;;;;5044049;28;20574;-72
2022/04/16 12:37:59;;;;;;;4.30;1.50;;;18.40;25.10;;;;;;5041935;28;20513;-72
2022/04/16 12:40:46;;;;;;;4.13;1.40;;;18.40;24.70;;;;;;5047849;28;20413;-73
2022/04/16 12:43:32;;;;;;;2.73;1.63;;;18.40;26.80;;;;;;5037664;28;20961;-70
2022/04/16 12:46:17;;;;;;;4.10;1.50;;;18.60;28.00;;;;;;5034673;28;20460;-72
2022/04/16 12:49:04;;;;;;;2.40;1.20;;;18.70;25.90;;;;;;5035964;28;20447;-72
2022/04/16 12:51:51;;;;;;;4.50;1.40;;;18.90;25.50;;;;;;5042583;28;20478;-71
2022/04/16 12:54:36;;;;;;;4.70;1.17;;;19.00;25.60;;;;;;5038603;28;20547;-72
2022/04/16 12:57:22;;;;;;;2.43;1.20;;;19.10;24.70;;;;;;5037486;28;20466;-71
2022/04/16 13:00:10;;;;;;;5.50;1.70;;;19.00;25.60;;;;;;5039631;28;22103;-72
2022/04/16 13:02:56;;;;;;;3.77;1.80;;;19.10;25.70;;;;;;5041473;28;20927;-72
2022/04/16 13:05:42;;;;;;;3.30;1.97;;;19.20;25.40;;;;;;5036453;28;20450;-71
2022/04/16 13:08:30;;;;;;;4.30;2.53;;;19.30;24.50;;;;;;5036916;28;20471;-72
2022/04/16 13:11:17;;;;;;;2.30;1.20;;;19.50;24.00;;;;;;5038170;28;20479;-73
2022/04/16 13:14:02;;;;;;;3.60;1.60;;;19.60;23.50;;;;;;5036734;28;20459;-72
2022/04/16 13:16:48;;;;;;;3.70;1.90;;;19.70;23.40;;;;;;5042246;28;20457;-72
2022/04/16 13:19:34;;;;;;;6.73;1.70;;;19.80;22.50;;;;;;5046921;28;20459;-72
2022/04/16 13:22:20;;;;;;;4.63;1.43;;;19.70;21.40;;;;;;5049721;28;20451;-72
2022/04/16 13:25:08;;;;;;;4.03;1.90;;;19.60;21.20;;;;;;5046504;28;20471;-73
2022/04/16 13:27:54;;;;;;;2.83;1.50;;;19.50;22.50;;;;;;5045018;28;20975;-70
2022/04/16 13:30:39;;;;;;;3.17;1.60;;;19.70;22.40;;;;;;5045222;28;20503;-70
2022/04/16 13:33:25;;;;;;;3.80;1.40;;;19.80;23.40;;;;;;5043049;28;20514;-70
2022/04/16 13:36:11;;;;;;;2.10;1.30;;;19.70;21.30;;;;;;5041385;28;20872;-70
2022/04/16 13:38:57;;;;;;;3.00;1.40;;;19.90;20.60;;;;;;5045902;28;20517;-70
2022/04/16 13:41:43;;;;;;;4.10;1.73;;;19.90;21.40;;;;;;5041247;28;21981;-70
2022/04/16 13:44:29;;;;;;;3.40;1.20;;;20.00;21.10;;;;;;5044235;28;20912;-72
2022/04/16 13:47:17;;;;;;;3.10;1.70;;;20.30;22.70;;;;;;5041375;28;20467;-72
2022/04/16 13:50:03;;;;;;;3.07;1.30;;;20.50;20.10;;;;;;5043383;28;21538;-72
2022/04/16 13:52:49;;;;;;;3.37;1.77;;;20.60;19.90;;;;;;5044983;28;20439;-72
2022/04/16 13:55:34;;;;;;;3.37;1.40;;;20.50;19.30;;;;;;5041043;28;20447;-72
2022/04/16 13:58:22;;;;;;;5.03;1.33;;;20.50;20.70;;;;;;5041843;28;20462;-72
2022/04/16 14:01:11;;;;;;;3.17;1.37;;;20.60;21.90;;;;;;5040685;28;20432;-72
2022/04/16 14:03:56;;;;;;;4.23;1.40;;;20.60;19.30;;;;;;5045522;28;20455;-74
2022/04/16 14:06:42;;;;;;;2.90;1.57;;;20.70;17.90;;;;;;5039776;28;20925;-73
2022/04/16 14:09:28;;;;;;;5.67;1.80;;;20.80;18.60;;;;;;5041051;28;20450;-74
2022/04/16 14:12:15;;;;;;;4.27;1.43;;;20.80;18.40;;;;;;5043443;28;20443;-74
2022/04/16 14:15:02;;;;;;;4.73;1.77;;;20.50;17.70;;;;;;5037517;28;20456;-76
2022/04/16 14:17:50;;;;;;;2.53;1.33;;;20.30;17.90;;;;;;5043121;28;20605;-74
2022/04/16 14:20:36;;;;;;;3.10;1.40;;;20.10;16.60;;;;;;5040060;28;21153;-74
2022/04/16 14:23:22;;;;;;;2.50;1.30;;;20.10;18.60;;;;;;5041281;28;20983;-72
2022/04/16 14:26:09;;;;;;;5.33;1.40;;;20.00;18.00;;;;;;5036998;28;20564;-73
2022/04/16 14:28:54;;;;;;;2.37;1.40;;;20.10;17.90;;;;;;5042318;28;20451;-73
2022/04/16 14:31:42;;;;;;;2.53;1.60;;;20.00;18.50;;;;;;5047847;28;20549;-73
2022/04/16 14:34:27;;;;;;;3.60;1.80;;;20.20;18.60;;;;;;5040400;28;20446;-73
2022/04/16 14:37:13;;;;;;;2.40;1.30;;;20.30;18.10;;;;;;5042718;28;20495;-73
2022/04/16 14:39:58;;;;;;;3.37;1.83;;;20.20;17.80;;;;;;5046998;28;21010;-72
2022/04/16 14:42:45;;;;;;;2.10;1.50;;;20.20;16.00;;;;;;5042506;28;20980;-73
2022/04/16 14:45:31;;;;;;;2.60;1.40;;;20.00;16.10;;;;;;5041582;28;20455;-72
2022/04/16 14:48:18;;;;;;;2.47;1.50;;;20.10;17.70;;;;;;5046489;28;20988;-72
2022/04/16 14:51:03;;;;;;;2.30;1.57;;;20.10;17.10;;;;;;5046795;28;20464;-72
2022/04/16 14:53:49;;;;;;;3.40;1.60;;;20.00;16.90;;;;;;5043071;28;21003;-72